createdAt,value
2024-05-09T00:08:45.746Z,17
2024-05-09T00:37:46.346Z,17
2024-05-09T01:06:51.949Z,19
2024-05-09T01:35:47.632Z,19
2024-05-09T02:04:59.779Z,19
2024-05-09T02:33:51.192Z,19
2024-05-09T03:02:34.826Z,20
2024-05-09T03:31:46.961Z,20
2024-05-09T04:00:40.292Z,19
2024-05-09T04:29:16.765Z,19
2024-05-09T04:58:14.059Z,21
2024-05-09T05:27:06.672Z,21
2024-05-09T05:55:50.741Z,24
2024-05-09T06:24:52.593Z,21
2024-05-09T06:53:53.950Z,20
2024-05-09T07:22:59.261Z,22
2024-05-09T07:53:21.455Z,20
2024-05-09T07:53:43.256Z,21
2024-05-09T08:22:08.206Z,20
2024-05-09T08:51:11.147Z,17
2024-05-09T09:20:26.026Z,14
2024-05-09T09:49:06.958Z,11
2024-05-09T10:17:59.177Z,10
2024-05-09T10:46:48.462Z,10
2024-05-09T11:15:57.519Z,7
2024-05-09T11:45:04.050Z,7
2024-05-09T12:13:59.845Z,7
2024-05-09T12:43:11.364Z,7
2024-05-09T13:12:00.613Z,7
2024-05-09T13:41:00.329Z,6
2024-05-09T14:10:13.685Z,7
2024-05-09T14:38:51.523Z,10
2024-05-09T15:07:52.531Z,7
2024-05-09T15:36:51.318Z,6
2024-05-09T16:05:48.108Z,6
2024-05-09T16:34:26.802Z,7
2024-05-09T17:03:23.642Z,7
2024-05-09T17:32:27.732Z,6
2024-05-09T18:01:22.303Z,7
2024-05-09T18:30:28.244Z,8
2024-05-09T18:59:10.799Z,7
2024-05-09T19:27:57.820Z,8
2024-05-09T19:56:58.397Z,8
2024-05-09T20:26:18.754Z,10
2024-05-09T20:55:22.848Z,20
2024-05-09T21:24:16.661Z,11
2024-05-09T21:53:17.988Z,13
2024-05-09T22:22:27.143Z,13
2024-05-09T22:51:27.594Z,13
2024-05-09T23:20:37.426Z,14
2024-05-09T23:49:06.761Z,13
